Fairbanks, AK

2:22 AM AKST on February 11, 2016 (GMT -0900)
KAKFAIRB24 | | Change Station
CLOSE
Current Station
Personal Weather Station
Location: Fairbanks, AK
Elevation: 540 ft
Nearby Weather Stations

Elev 540 ft 64.81 °N, 147.70 °W | Updated 1 minute ago

Overcast
Overcast
11.8 °F
Feels Like 12 °F
N
0.0
Wind Variable Wind from North
Gusts 1.0 mph

Today
High -- | Low -- °F
--% Chance of Precip.
Yesterday
High -- | Low -- °F
Precip. -- in
Pressure 29.70 in
Visibility 9.0 miles
Clouds Scattered Clouds 11000 ft
Overcast 13000 ft
Windchill 12 °F
Dew Point 8 °F
Humidity 85%
Rainfall 0.00 in
Snow Depth Not available.
9:04 AM 5:07 PM
Waxing Crescent, 11% visible
METAR PAFB 111058Z AUTO 00000KT 9SM R25R/5500FT SCT110 OVC130 M13/M15 A2966 RMK AO2 SLP057 T11341154 $
Pressure 29.70 in
Visibility 9.0 miles
Clouds Scattered Clouds 11000 ft
Overcast 13000 ft
Windchill 12 °F
Dew Point 8 °F
Humidity 85%
Rainfall 0.00 in
Snow Depth Not available.
9:04 AM 5:07 PM
Waxing Crescent, 11% visible
METAR PAFB 111058Z AUTO 00000KT 9SM R25R/5500FT SCT110 OVC130 M13/M15 A2966 RMK AO2 SLP057 T11341154 $

10-Day Weather Forecast

Almanac

Astronomy

Feb. 11, 2016 Rise Set
Actual Time
Civil Twilight
Nautical Twilight
Astronomical Twilight
Moon
Length of Visible Light
Length of Day
Tomorrow will be .
, % of the Moon is Illuminated

Today's Extremes

State Highs State Lows

Community

WunderPhotos

Upload Photos

1,892,030 photos uploaded!

WunderBlog® & News

Nearby

Air Quality

  Air Quality AQ Index Pollutant
Not available.

Snow Depth

Station Depth Elevation

Earthquake Activity

City Distance Mag. Time & Date
Minimum magnitude displayed is 2.5.

Coastal Water Temperatures

Place Temperature

Stations

Nearby Weather Stations

Station Location Temp. Windchill Dew Point Humidity Wind Precip. Elev Updated Type
                   

Watches & Warnings

There are currently no watches in effect.